createdAt,value
2018-01-26T00:04:42.410Z,3.70
2018-01-26T00:10:46.306Z,3.50
2018-01-26T00:16:50.992Z,3.70
2018-01-26T00:22:56.130Z,3.70
2018-01-26T00:29:00.227Z,3.70
2018-01-26T00:35:04.358Z,3.60
2018-01-26T00:41:08.200Z,3.70
2018-01-26T00:53:22.287Z,3.70
2018-01-26T00:59:27.383Z,3.70
2018-01-26T01:05:31.731Z,3.60
2018-01-26T01:11:35.777Z,3.70
2018-01-26T01:17:39.728Z,3.70
2018-01-26T01:23:43.767Z,3.70
2018-01-26T01:29:47.962Z,3.70
2018-01-26T01:35:52.320Z,3.60
2018-01-26T01:41:56.189Z,3.80
2018-01-26T01:48:00.105Z,3.70
2018-01-26T01:54:04.039Z,3.60
2018-01-26T02:00:07.931Z,3.70
2018-01-26T02:06:12.208Z,3.60
2018-01-26T02:12:16.541Z,3.70
2018-01-26T02:18:20.525Z,3.70
2018-01-26T02:24:25.280Z,3.70
2018-01-26T02:30:29.596Z,3.70
2018-01-26T02:36:34.435Z,3.60
2018-01-26T02:42:38.420Z,3.50
2018-01-26T02:48:43.118Z,3.60
2018-01-26T02:54:47.047Z,3.60
2018-01-26T03:00:50.938Z,3.70
2018-01-26T03:06:55.796Z,3.70
2018-01-26T03:13:00.063Z,3.70
2018-01-26T03:19:03.921Z,3.70
2018-01-26T03:25:07.719Z,3.70
2018-01-26T03:31:12.041Z,3.70
2018-01-26T03:37:17.104Z,3.70
2018-01-26T03:43:21.142Z,3.70
2018-01-26T03:49:24.986Z,3.60
2018-01-26T03:55:28.939Z,3.60
2018-01-26T04:01:32.925Z,3.70
2018-01-26T04:07:37.564Z,3.80
2018-01-26T04:13:41.574Z,3.70
2018-01-26T04:19:45.778Z,3.80
2018-01-26T04:25:49.681Z,3.80
2018-01-26T04:31:54.218Z,3.90
2018-01-26T04:37:59.034Z,3.80
2018-01-26T04:44:03.129Z,3.80
2018-01-26T04:50:07.163Z,3.90
2018-01-26T04:56:11.391Z,3.80
2018-01-26T05:02:15.579Z,3.80
2018-01-26T05:08:20.573Z,3.80
2018-01-26T05:14:24.463Z,3.80
2018-01-26T05:20:29.451Z,3.90
2018-01-26T05:26:33.395Z,3.90
2018-01-26T05:32:37.718Z,3.80
2018-01-26T05:38:42.565Z,3.80
2018-01-26T05:44:47.294Z,3.90
2018-01-26T05:50:51.560Z,3.90
2018-01-26T05:56:56.292Z,3.90
2018-01-26T06:03:00.488Z,3.90
2018-01-26T06:09:04.812Z,3.90
2018-01-26T06:15:08.929Z,3.90
2018-01-26T06:21:13.582Z,4.10
2018-01-26T06:27:18.004Z,4.10
2018-01-26T06:33:22.919Z,4.30
2018-01-26T06:39:26.893Z,4.30
2018-01-26T06:45:30.872Z,4.40
2018-01-26T06:51:34.796Z,4.50
2018-01-26T06:57:39.023Z,4.60
2018-01-26T07:03:42.880Z,4.70
2018-01-26T07:09:47.087Z,4.60
2018-01-26T07:15:51.559Z,4.60
2018-01-26T07:21:55.747Z,4.70
2018-01-26T07:28:00.135Z,4.90
2018-01-26T07:34:05.070Z,5.00
2018-01-26T07:40:09.029Z,5.00
2018-01-26T07:46:12.865Z,5.10
2018-01-26T07:52:16.968Z,5.10
2018-01-26T07:58:23.435Z,5.20
2018-01-26T08:04:27.858Z,5.60
2018-01-26T08:10:31.365Z,5.60
2018-01-26T08:16:34.669Z,5.60
2018-01-26T08:22:37.982Z,5.60
2018-01-26T08:28:41.513Z,5.80
2018-01-26T08:34:44.850Z,6.00
2018-01-26T08:40:48.561Z,6.00
2018-01-26T08:46:52.615Z,6.30
2018-01-26T08:52:55.884Z,6.30
2018-01-26T08:58:59.616Z,6.30
2018-01-26T09:05:02.995Z,6.60
2018-01-26T09:11:07.209Z,7.00
2018-01-26T09:17:10.792Z,7.00
2018-01-26T09:23:14.046Z,7.00
2018-01-26T09:29:17.253Z,7.30
2018-01-26T09:35:21.203Z,7.40
2018-01-26T09:41:24.986Z,7.50
2018-01-26T09:47:28.377Z,7.50
2018-01-26T09:53:32.446Z,7.90
2018-01-26T09:59:36.602Z,8.10
2018-01-26T10:05:39.790Z,8.10
2018-01-26T10:11:43.435Z,8.70
2018-01-26T10:17:47.055Z,8.80
2018-01-26T10:23:50.421Z,8.90
2018-01-26T10:29:54.101Z,8.60
2018-01-26T10:35:57.551Z,8.60
2018-01-26T10:42:01.027Z,8.80
2018-01-26T10:48:04.490Z,8.40
2018-01-26T10:54:08.055Z,8.60
2018-01-26T11:00:11.729Z,8.60
2018-01-26T11:06:15.478Z,8.70
2018-01-26T11:12:19.243Z,8.90
2018-01-26T11:18:23.790Z,9.00
2018-01-26T11:24:27.361Z,9.00
2018-01-26T11:30:30.956Z,9.40
2018-01-26T11:36:34.420Z,9.90
2018-01-26T11:42:38.864Z,10.60
2018-01-26T11:48:42.100Z,10.50
2018-01-26T11:54:45.438Z,16.80
2018-01-26T12:00:48.673Z,22.00
2018-01-26T12:06:52.407Z,23.70
2018-01-26T12:12:56.530Z,23.40
2018-01-26T12:19:00.564Z,26.20
2018-01-26T12:25:04.771Z,25.10
2018-01-26T12:31:08.956Z,29.20
2018-01-26T12:37:12.837Z,28.70
2018-01-26T12:43:17.475Z,29.40
2018-01-26T12:49:23.120Z,28.10
2018-01-26T12:55:27.386Z,28.00
2018-01-26T13:01:31.395Z,28.80
2018-01-26T13:07:35.705Z,25.00
2018-01-26T13:19:43.875Z,24.00
2018-01-26T13:25:47.312Z,22.20
2018-01-26T13:31:50.657Z,22.70
2018-01-26T13:37:54.509Z,26.30
2018-01-26T14:02:14.845Z,26.60
2018-01-26T14:08:19.323Z,21.30
2018-01-26T14:14:22.812Z,21.20
2018-01-26T14:20:26.076Z,18.00
2018-01-26T14:26:29.579Z,14.30
2018-01-26T14:32:32.956Z,12.00
2018-01-26T14:38:36.330Z,10.90
2018-01-26T14:44:39.726Z,10.20
2018-01-26T14:50:42.999Z,9.60
2018-01-26T14:56:46.844Z,8.70
2018-01-26T15:02:50.385Z,8.40
2018-01-26T15:08:53.868Z,8.30
2018-01-26T15:14:58.154Z,7.80
2018-01-26T15:21:03.001Z,7.80
2018-01-26T15:27:06.555Z,7.50
2018-01-26T15:33:10.125Z,7.50
2018-01-26T15:39:14.384Z,7.20
2018-01-26T15:45:17.723Z,7.10
2018-01-26T15:51:23.558Z,7.00
2018-01-26T15:57:27.005Z,6.80
2018-01-26T16:03:30.280Z,6.50
2018-01-26T16:09:33.717Z,6.60
2018-01-26T16:15:38.007Z,6.30
2018-01-26T16:21:42.035Z,6.30
2018-01-26T16:27:45.469Z,6.10
2018-01-26T16:33:48.985Z,6.00
2018-01-26T16:39:52.246Z,5.90
2018-01-26T16:45:56.465Z,5.80
2018-01-26T16:52:01.587Z,5.70
2018-01-26T16:58:05.080Z,5.70
2018-01-26T17:04:08.539Z,5.60
2018-01-26T17:10:12.229Z,5.50
2018-01-26T17:16:16.392Z,5.20
2018-01-26T17:22:21.036Z,5.20
2018-01-26T17:28:31.284Z,5.20
2018-01-26T17:34:34.766Z,5.20
2018-01-26T17:40:42.481Z,5.20
2018-01-26T17:46:46.186Z,5.00
2018-01-26T17:52:50.574Z,5.00
2018-01-26T17:58:54.171Z,4.90
2018-01-26T18:04:58.310Z,4.90
2018-01-26T18:11:02.425Z,4.90
2018-01-26T18:17:05.857Z,4.90
2018-01-26T18:23:09.892Z,4.90
2018-01-26T18:29:14.600Z,4.70
2018-01-26T18:35:18.846Z,4.70
2018-01-26T18:41:23.236Z,4.80
2018-01-26T18:47:27.665Z,4.60
2018-01-26T18:53:33.443Z,4.60
2018-01-26T18:59:37.240Z,4.50
2018-01-26T19:05:40.790Z,4.40
2018-01-26T19:11:46.842Z,4.40
2018-01-26T19:17:54.090Z,4.20
2018-01-26T19:23:57.538Z,3.90
2018-01-26T19:30:01.591Z,3.90
2018-01-26T19:36:05.297Z,3.90
2018-01-26T19:42:09.509Z,3.90
2018-01-26T19:48:12.885Z,3.80
2018-01-26T19:54:16.545Z,4.00
2018-01-26T20:00:20.856Z,3.70
2018-01-26T20:06:37.206Z,3.70
2018-01-26T20:12:46.538Z,3.70
2018-01-26T20:18:49.978Z,3.70
2018-01-26T20:24:54.928Z,4.00
2018-01-26T20:30:58.522Z,4.00
2018-01-26T20:37:02.180Z,3.80
2018-01-26T20:43:07.045Z,3.80
2018-01-26T20:49:10.954Z,3.80
2018-01-26T20:55:17.785Z,3.80
2018-01-26T21:01:21.312Z,3.80
2018-01-26T21:07:24.781Z,3.70
2018-01-26T21:13:31.596Z,3.70
2018-01-26T21:19:35.660Z,3.80
2018-01-26T21:25:40.596Z,3.70
2018-01-26T21:31:45.415Z,3.70
2018-01-26T21:37:50.603Z,3.70
2018-01-26T21:43:55.589Z,3.70
2018-01-26T21:50:00.034Z,3.70
2018-01-26T21:56:04.314Z,3.70
2018-01-26T22:02:08.322Z,3.50
2018-01-26T22:08:12.392Z,3.20
2018-01-26T22:14:19.198Z,3.10
2018-01-26T22:20:23.172Z,3.10
2018-01-26T22:26:27.117Z,3.10
2018-01-26T22:32:31.044Z,3.10
2018-01-26T22:38:35.149Z,3.30
2018-01-26T22:44:39.369Z,3.20
2018-01-26T22:50:43.417Z,3.10
2018-01-26T22:56:47.760Z,3.10
2018-01-26T23:02:51.977Z,3.00
2018-01-26T23:08:55.921Z,2.80
2018-01-26T23:15:00.589Z,2.80
2018-01-26T23:21:04.514Z,2.80
2018-01-26T23:27:08.619Z,2.80
2018-01-26T23:33:13.554Z,2.60
2018-01-26T23:39:17.632Z,2.60
2018-01-26T23:45:21.499Z,2.60
2018-01-26T23:51:25.590Z,2.30
2018-01-26T23:57:29.603Z,2.10
